Terminal Aerodrome Forecast
Issued by NWS Jackson, MS

Home | Current Version | Previous Version | Text Only | Print | Product List | Glossary On
Versions: 1 2 3 4 5 6 7 8 9 10 11 12 13 14
000
FTUS44 KJAN 241734
TAFHBG
TAF
KHBG 241734Z 2418/2518 20010G19KT P6SM VCSH SCT025 BKN035
     FM242000 18016G22KT P6SM BKN040
     FM250500 19010KT P6SM BKN015 OVC020
     FM251200 27008KT 2SM TSRA BR BKN015 OVC020CB
     FM251400 35007KT 4SM RA BR OVC015=

USA.gov is the U.S. government's official web portal to all federal, state and local government web resources and services.